Laren, Netherlands
Current Conditions -  °F | °C
As of 12:55 AM on Thursday 23 Oct 2014 (Local Time) from EHAM Reporting Station
Broken Clouds Broken Clouds  
Wind Chill: 52°   Ceiling: 2500
Heat Index: 52°   Visibility: 6mi
Dew Point: 50°   Wind: 5mph
Humidity: 94%   Direction: 210°SSW
Pressure: 30.15"   Gusts: NA
Location:  52.26°N, 5.23°E
Report Text: EHAM 222255Z 21004KT 9999 BKN025 11/10 Q1021 TEMPO 7000 -DZ
Loading
Personal Weather Stations






























Interactive Weather Map
Tropical Storm Tracking
New forecast layout! Learn more

10-Day Weather Forecast

Advertisements
Track Severe Weather on mobile